.
WxDataArchive / Data Records for 2008-05-02
2008-05-01 May 2008 2008-05-03

Data Records for Friday, 02 May 2008

Time	Temp	Chill	HIndex	Humid	Dewpt	 Wind 	HiWind	WindDir	Rain 	Barom 
-----	----	-----	------	-----	-----	------	------	-------	-----	----- 
00:00	66.4	66.4	66.4	55	49.7	0	2	135	0.00	29.692 
00:05	66.4	66.4	66.4	55	49.7	0	2	135	0.00	29.689 
00:10	66.6	66.6	66.6	54	49.4	1	3	90	0.00	29.688 
00:15	66.6	66.6	66.6	54	49.4	1	2	90	0.00	29.688 
00:20	66.6	66.6	66.6	56	50.4	0	3	68	0.00	29.688 
00:25	66.4	66.4	66.4	57	50.7	1	2	68	0.00	29.690 
00:30	66.3	66.3	66.3	56	50.1	0	3	68	0.00	29.688 
00:35	66.1	66.1	66.1	56	49.9	0	2	270	0.00	29.687 
00:40	66.1	66.1	66.1	57	50.4	1	2	22	0.00	29.686 
00:45	66.1	66.1	66.1	56	49.9	1	3	22	0.00	29.682 
00:50	66.3	66.3	66.3	56	50.1	1	5	68	0.00	29.678 
00:55	66.3	66.3	66.3	57	50.6	0	2	90	0.00	29.678 
01:00	66.1	66.1	66.1	58	50.9	1	2	90	0.00	29.674 
01:05	66.0	66.0	66.0	58	50.8	1	2	90	0.00	29.672 
01:10	65.8	65.8	65.8	58	50.6	0	2	90	0.00	29.671 
01:15	65.8	65.8	65.8	58	50.6	0	2	90	0.00	29.669 
01:20	65.8	65.8	65.8	58	50.6	0	1	90	0.00	29.668 
01:25	65.8	65.8	65.8	58	50.6	1	2	90	0.00	29.665 
01:30	65.8	65.8	65.8	59	51.1	1	2	112	0.00	29.663 
01:35	66.0	66.0	66.0	58	50.8	1	3	112	0.00	29.664 
01:40	66.0	66.0	66.0	59	51.3	1	3	112	0.00	29.659 
01:45	66.0	66.0	66.0	59	51.3	1	2	112	0.00	29.657 
01:50	66.0	66.0	66.0	59	51.3	1	2	112	0.00	29.656 
01:55	65.8	65.8	65.8	60	51.5	0	2	112	0.00	29.656 
02:00	66.0	66.0	66.0	60	51.7	1	4	112	0.00	29.656 
02:05	66.0	66.0	66.0	60	51.7	1	5	112	0.00	29.658 
02:10	66.0	66.0	66.0	60	51.7	1	3	112	0.00	29.656 
02:15	65.8	65.8	65.8	60	51.5	1	4	90	0.00	29.656 
02:20	65.8	65.8	65.8	61	52.0	0	3	45	0.00	29.656 
02:25	65.8	65.8	65.8	61	52.0	1	3	0	0.00	29.655 
02:30	65.8	65.8	65.8	61	52.0	0	1	0	0.00	29.655 
02:35	65.6	65.6	65.6	61	51.8	0	2	315	0.00	29.655 
02:40	65.8	65.8	65.8	61	52.0	1	6	315	0.00	29.656 
02:45	65.8	65.8	65.8	61	52.0	1	2	22	0.00	29.656 
02:50	65.8	65.8	65.8	61	52.0	1	5	90	0.00	29.656 
02:55	65.8	65.8	65.8	61	52.0	1	4	90	0.00	29.655 
03:00	65.8	65.8	65.8	62	52.4	0	3	248	0.00	29.656 
03:05	66.0	66.0	66.0	61	52.2	1	4	292	0.00	29.658 
03:10	66.0	66.0	66.0	61	52.2	1	3	270	0.00	29.658 
03:15	66.0	66.0	66.0	61	52.2	1	9	248	0.00	29.657 
03:20	66.0	66.0	66.0	61	52.2	1	3	248	0.00	29.656 
03:25	66.1	66.1	66.1	61	52.3	1	5	135	0.00	29.651 
03:30	66.1	66.1	66.1	61	52.3	2	6	270	0.00	29.652 
03:35	66.1	66.1	66.1	62	52.7	1	5	112	0.00	29.647 
03:40	66.1	66.1	66.1	62	52.7	2	7	248	0.00	29.647 
03:45	66.1	66.1	66.1	62	52.7	1	5	248	0.00	29.644 
03:50	66.3	66.3	66.3	62	52.9	1	5	270	0.00	29.643 
03:55	66.1	66.1	66.1	62	52.7	1	4	270	0.00	29.643 
04:00	66.1	66.1	66.1	62	52.7	2	7	225	0.00	29.643 
04:05	66.1	66.1	66.1	63	53.1	1	5	248	0.00	29.643 
04:10	66.0	66.0	66.0	63	53.0	1	5	270	0.00	29.642 
04:15	66.0	66.0	66.0	63	53.0	1	3	248	0.00	29.640 
04:20	65.8	65.8	65.8	64	53.3	1	4	315	0.00	29.637 
04:25	65.8	65.8	65.8	64	53.3	2	5	292	0.00	29.635 
04:30	65.6	65.6	65.6	64	53.1	1	5	248	0.00	29.633 
04:35	65.6	65.6	65.6	65	53.5	1	4	270	0.00	29.629 
04:40	65.5	65.5	65.5	65	53.4	1	5	90	0.00	29.629 
04:45	65.3	65.3	65.3	65	53.2	1	5	225	0.00	29.636 
04:50	65.3	65.3	65.3	65	53.2	1	4	202	0.00	29.636 
04:55	65.3	65.3	65.3	66	53.6	1	5	248	0.00	29.634 
05:00	65.3	65.3	65.3	66	53.6	1	3	248	0.00	29.641 
05:05	65.3	65.3	65.3	66	53.6	1	3	248	0.00	29.641 
05:10	65.3	65.3	65.3	66	53.6	1	5	248	0.00	29.643 
05:15	65.3	65.3	65.3	66	53.6	1	6	248	0.00	29.643 
05:20	65.3	65.3	65.3	66	53.6	1	5	248	0.00	29.644 
05:25	65.3	65.3	65.3	66	53.6	1	4	248	0.00	29.643 
05:30	65.5	65.5	65.5	66	53.8	2	5	270	0.00	29.642 
05:35	65.5	65.5	65.5	66	53.8	1	4	248	0.00	29.643 
05:40	65.3	65.3	65.3	67	54.1	1	4	248	0.00	29.646 
05:45	65.3	65.3	65.3	67	54.1	1	3	270	0.00	29.648 
05:50	65.3	65.3	65.3	67	54.1	1	4	270	0.00	29.651 
05:55	65.2	65.2	65.2	67	54.0	2	7	248	0.00	29.658 
06:00	65.3	65.3	65.3	67	54.1	1	4	248	0.00	29.660 
06:05	65.3	65.3	65.3	68	54.5	1	4	270	0.00	29.661 
06:10	65.3	65.3	65.3	68	54.5	1	4	225	0.00	29.663 
06:15	65.5	65.5	65.5	68	54.7	1	5	248	0.00	29.666 
06:20	65.6	65.6	65.6	68	54.7	2	6	248	0.00	29.663 
06:25	65.6	65.6	65.6	68	54.7	2	4	248	0.00	29.663 
06:30	65.6	65.6	65.6	68	54.7	1	6	248	0.00	29.660 
06:35	65.6	65.6	65.6	68	54.7	1	3	292	0.00	29.661 
06:40	65.6	65.6	65.6	69	55.1	2	6	248	0.00	29.664 
06:45	65.8	65.8	65.8	69	55.3	1	4	248	0.00	29.662 
06:50	65.8	65.8	65.8	69	55.3	1	6	248	0.00	29.662 
06:55	66.1	66.1	66.1	69	55.6	1	4	248	0.00	29.661 
07:00	66.3	66.3	66.3	68	55.4	2	5	248	0.00	29.661 
07:05	66.4	66.4	66.4	68	55.5	2	7	248	0.00	29.665 
07:10	66.4	66.4	66.4	68	55.5	1	5	248	0.00	29.668 
07:15	66.3	66.3	66.3	70	56.2	2	4	248	0.00	29.673 
07:20	65.8	65.8	65.8	73	56.9	2	7	248	0.00	29.666 
07:25	65.3	65.3	65.3	76	57.5	2	7	248	0.01	29.668 
07:30	64.7	64.7	64.7	77	57.3	2	6	248	0.00	29.673 
07:35	64.3	64.3	64.3	80	58.0	2	5	248	0.01	29.675 
07:40	63.5	63.5	63.5	84	58.6	2	6	248	0.03	29.668 
07:45	62.7	62.7	62.7	87	58.8	2	6	248	0.05	29.666 
07:50	62.1	62.1	62.1	89	58.8	2	6	248	0.03	29.669 
07:55	61.8	61.8	61.8	90	58.8	1	5	248	0.00	29.666 
08:00	61.6	61.6	61.6	91	58.9	1	4	248	0.01	29.669 
08:05	61.6	61.6	61.6	91	58.9	0	3	248	0.01	29.667 
08:10	61.5	61.5	61.5	92	59.2	1	6	68	0.02	29.671 
08:15	61.5	61.5	61.5	92	59.2	1	5	68	0.00	29.665 
08:20	61.3	61.3	61.3	92	59.0	1	3	338	0.01	29.665 
08:25	61.3	61.3	61.3	93	59.3	1	4	270	0.00	29.665 
08:30	61.3	61.3	61.3	93	59.3	1	4	90	0.00	29.668 
08:35	61.3	61.3	61.3	93	59.3	0	2	248	0.00	29.668 
08:40	61.3	61.3	61.3	93	59.3	0	3	112	0.00	29.668 
08:45	61.3	61.3	61.3	93	59.3	0	2	68	0.00	29.655 
08:50	61.3	61.3	61.3	93	59.3	0	2	68	0.00	29.655 
08:55	61.3	61.3	61.3	93	59.3	1	2	68	0.01	29.655 
09:00	61.3	61.3	61.3	93	59.3	0	2	68	0.00	29.656 
09:05	61.3	61.3	61.3	93	59.3	0	3	68	0.01	29.656 
09:10	61.3	61.3	61.3	93	59.3	0	1	68	0.01	29.656 
09:15	61.3	61.3	61.3	93	59.3	0	2	68	0.00	29.651 
09:20	61.3	61.3	61.3	93	59.3	0	1	68	0.00	29.651 
09:25	61.3	61.3	61.3	93	59.3	0	2	135	0.00	29.651 
09:30	61.3	61.3	61.3	93	59.3	0	1	135	0.00	29.650 
09:35	61.5	61.5	61.5	94	59.8	0	4	90	0.00	29.650 
09:40	61.6	61.6	61.6	94	59.9	0	2	90	0.00	29.650 
09:45	61.8	61.8	61.8	93	59.8	1	2	90	0.00	29.653 
09:50	62.0	62.0	62.0	93	59.9	1	2	90	0.00	29.653 
09:55	62.1	62.1	62.1	93	60.0	1	3	90	0.00	29.653 
10:00	62.3	62.3	62.3	93	60.2	1	3	90	0.00	29.655 
10:05	62.6	62.6	62.6	92	60.2	1	4	112	0.00	29.655 
10:10	62.6	62.6	62.6	92	60.2	1	4	112	0.00	29.655 
10:15	63.2	63.2	63.2	92	60.8	2	6	135	0.00	29.649 
10:20	64.0	64.0	64.0	91	61.3	2	4	112	0.00	29.649 
10:25	64.5	64.5	64.5	90	61.5	2	5	90	0.00	29.649 
10:30	65.2	65.2	65.2	88	61.6	2	7	112	0.00	29.644 
10:35	65.8	65.8	65.8	87	61.8	2	5	112	0.00	29.644 
10:40	66.6	66.6	66.6	84	61.6	2	5	90	0.00	29.644 
10:45	67.6	67.6	67.6	84	62.6	2	4	68	0.00	29.628 
10:50	68.6	68.6	68.6	82	62.9	2	7	90	0.00	29.628 
10:55	69.6	69.6	69.6	79	62.8	2	4	135	0.00	29.628 
11:00	69.9	69.9	69.9	78	62.7	2	5	90	0.00	29.616 
11:05	70.4	70.4	70.4	76	62.5	2	7	90	0.00	29.616 
11:10	70.8	70.8	70.8	75	62.5	3	12	68	0.00	29.616 
11:15	71.1	71.1	71.1	76	63.1	3	7	90	0.00	29.616 
11:20	71.1	71.1	71.1	73	62.0	3	7	90	0.00	29.616 
11:25	71.5	71.5	71.5	74	62.8	2	8	248	0.00	29.616 
11:30	72.0	72.0	72.0	72	62.5	2	9	0	0.00	29.609 
11:35	72.3	72.3	72.3	70	62.0	3	7	270	0.00	29.609 
11:40	72.8	72.8	72.8	69	62.0	3	7	45	0.00	29.609 
11:45	73.3	73.3	73.3	67	61.7	3	10	248	0.00	29.603 
11:50	73.5	73.5	73.5	66	61.4	3	10	270	0.00	29.603 
11:55	73.9	73.9	73.9	68	62.7	3	13	248	0.00	29.603 
12:00	74.6	74.6	74.6	65	62.0	3	10	248	0.00	29.592 
12:05	74.4	74.4	74.4	64	61.4	3	13	248	0.00	29.592 
12:10	74.4	74.4	74.4	64	61.4	3	10	270	0.00	29.592 
12:15	74.7	74.7	74.7	65	62.1	4	14	248	0.00	29.591 
12:20	75.1	75.1	77.4	61	60.7	4	11	248	0.00	29.591 
12:25	75.1	75.1	77.3	63	61.6	3	7	270	0.00	29.591 
12:30	74.9	74.9	74.9	64	61.9	3	7	270	0.00	29.601 
12:35	74.4	74.4	74.4	63	61.0	3	12	225	0.00	29.601 
12:40	73.5	73.5	73.5	63	60.1	3	12	248	0.00	29.601 
12:45	73.0	73.0	73.0	64	60.1	3	11	248	0.00	29.605 
12:50	72.7	72.7	72.7	64	59.8	4	13	248	0.00	29.605 
12:55	72.5	72.5	72.5	65	60.0	2	10	225	0.00	29.605 
13:00	72.3	72.3	72.3	65	59.9	3	9	248	0.00	29.608 
13:05	72.8	72.8	72.8	64	59.9	4	14	248	0.00	29.608 
13:10	73.3	73.3	73.3	62	59.5	3	10	270	0.00	29.608 
13:15	73.5	73.5	73.5	63	60.1	4	18	248	0.00	29.597 
13:20	73.7	73.7	73.7	63	60.3	3	8	248	0.00	29.597 
13:25	73.3	73.3	73.3	62	59.5	4	11	270	0.00	29.597 
13:30	73.2	73.2	73.2	62	59.4	5	13	270	0.00	29.608 
13:35	72.8	72.8	72.8	62	59.0	4	12	225	0.00	29.608 
13:40	72.7	72.7	72.7	63	59.4	4	15	270	0.00	29.608 
13:45	72.5	72.5	72.5	63	59.2	4	12	270	0.00	29.599 
13:50	72.7	72.7	72.7	63	59.4	5	13	270	0.00	29.599 
13:55	72.7	72.7	72.7	62	58.9	4	14	248	0.00	29.599 
14:00	72.8	72.8	72.8	62	59.0	4	13	292	0.00	29.605 
14:05	72.8	72.8	72.8	63	59.5	4	13	270	0.00	29.605 
14:10	72.3	72.3	72.3	65	59.9	3	11	248	0.00	29.605 
14:15	71.1	71.1	71.1	69	60.4	4	12	270	0.00	29.619 
14:20	70.1	70.1	70.1	72	60.6	3	9	248	0.01	29.619 
14:25	69.1	69.1	69.1	76	61.2	3	8	270	0.00	29.619 
14:30	68.1	68.1	68.1	79	61.3	2	10	0	0.00	29.622 
14:35	67.1	67.1	67.1	82	61.4	4	11	270	0.01	29.622 
14:40	66.4	66.4	66.4	85	61.7	3	7	270	0.02	29.622 
14:45	66.1	66.1	66.1	86	61.8	3	7	248	0.00	29.621 
14:50	66.1	66.1	66.1	87	62.1	3	6	248	0.00	29.621 
14:55	66.3	66.3	66.3	85	61.6	4	15	248	0.00	29.621 
15:00	66.4	66.4	66.4	84	61.4	3	13	248	0.00	29.616 
15:05	66.4	66.4	66.4	83	61.1	3	11	270	0.00	29.616 
15:10	66.9	66.9	66.9	82	61.2	4	12	292	0.00	29.616 
15:15	67.4	67.4	67.4	82	61.7	2	7	270	0.00	29.605 
15:20	67.8	67.8	67.8	81	61.7	3	9	270	0.00	29.605 
15:25	68.1	68.1	68.1	80	61.7	3	9	112	0.00	29.605 
15:30	68.3	68.3	68.3	79	61.5	3	11	45	0.00	29.598 
15:35	68.1	68.1	68.1	79	61.3	3	7	112	0.00	29.598 
15:40	68.1	68.1	68.1	79	61.3	3	7	90	0.00	29.598 
15:45	68.1	68.1	68.1	79	61.3	4	11	90	0.00	29.584 
15:50	68.1	68.1	68.1	79	61.3	3	10	90	0.00	29.584 
15:55	68.3	68.3	68.3	79	61.5	4	15	112	0.00	29.584 
16:00	68.4	68.4	68.4	78	61.3	5	10	90	0.00	29.581 
16:05	68.6	68.6	68.6	78	61.5	3	8	90	0.00	29.581 
16:10	68.8	68.8	68.8	78	61.7	1	5	90	0.00	29.581 
16:15	68.8	68.8	68.8	77	61.3	3	10	90	0.00	29.577 
16:20	68.8	68.8	68.8	77	61.3	3	13	112	0.00	29.577 
16:25	68.8	68.8	68.8	77	61.3	3	10	90	0.00	29.577 
16:30	68.6	68.6	68.6	77	61.1	4	13	90	0.00	29.579 
16:35	68.6	68.6	68.6	76	60.7	3	12	90	0.00	29.579 
16:40	68.4	68.4	68.4	76	60.5	4	11	292	0.00	29.579 
16:45	68.3	68.3	68.3	76	60.4	4	13	90	0.00	29.585 
16:50	68.3	68.3	68.3	76	60.4	4	9	90	0.00	29.585 
16:55	68.3	68.3	68.3	76	60.4	3	7	90	0.00	29.585 
17:00	68.4	68.4	68.4	77	60.9	3	14	112	0.00	29.582 
17:05	68.8	68.8	68.8	75	60.5	6	13	112	0.00	29.582 
17:10	68.9	68.9	68.9	74	60.3	5	11	90	0.00	29.582 
17:15	68.9	68.9	68.9	74	60.3	4	11	90	0.00	29.577 
17:20	68.9	68.9	68.9	74	60.3	3	6	112	0.00	29.577 
17:25	68.8	68.8	68.8	74	60.2	4	7	90	0.00	29.577 
17:30	68.6	68.6	68.6	73	59.6	4	10	270	0.00	29.576 
17:35	68.8	68.8	68.8	73	59.8	3	9	248	0.00	29.576 
17:40	68.6	68.6	68.6	72	59.2	4	12	90	0.00	29.576 
17:45	68.4	68.4	68.4	73	59.4	3	10	135	0.00	29.583 
17:50	68.3	68.3	68.3	73	59.3	3	9	68	0.00	29.583 
17:55	68.1	68.1	68.1	74	59.5	3	11	248	0.00	29.583 
18:00	67.9	67.9	67.9	74	59.3	3	11	112	0.00	29.583 
18:05	67.9	67.9	67.9	74	59.3	2	7	270	0.00	29.583 
18:10	67.6	67.6	67.6	74	59.0	2	12	68	0.00	29.583 
18:15	67.4	67.4	67.4	75	59.2	3	11	68	0.00	29.583 
18:20	67.3	67.3	67.3	74	58.7	4	12	112	0.00	29.583 
18:25	67.1	67.1	67.1	75	58.9	2	8	90	0.00	29.583 
18:30	66.9	66.9	66.9	75	58.7	2	6	90	0.00	29.584 
18:35	66.8	66.8	66.8	75	58.6	3	7	112	0.00	29.584 
18:40	66.6	66.6	66.6	75	58.4	3	10	270	0.00	29.584 
18:45	66.6	66.6	66.6	75	58.4	2	7	90	0.00	29.585 
18:50	66.6	66.6	66.6	74	58.0	3	10	90	0.00	29.585 
18:55	66.4	66.4	66.4	74	57.9	2	7	248	0.00	29.585 
19:00	66.4	66.4	66.4	74	57.9	3	12	112	0.00	29.585 
19:05	66.4	66.4	66.4	74	57.9	2	10	45	0.00	29.585 
19:10	66.6	66.6	66.6	73	57.7	3	10	270	0.00	29.585 
19:15	66.6	66.6	66.6	73	57.7	2	6	90	0.00	29.587 
19:20	66.6	66.6	66.6	73	57.7	3	10	90	0.00	29.587 
19:25	66.4	66.4	66.4	73	57.5	2	6	112	0.00	29.587 
19:30	66.3	66.3	66.3	73	57.4	2	9	112	0.00	29.589 
19:35	66.3	66.3	66.3	73	57.4	2	7	22	0.00	29.589 
19:40	66.1	66.1	66.1	73	57.2	2	6	90	0.00	29.589 
19:45	66.1	66.1	66.1	73	57.2	2	11	68	0.00	29.587 
19:50	66.1	66.1	66.1	73	57.2	2	9	112	0.00	29.587 
19:55	66.1	66.1	66.1	73	57.2	3	7	68	0.00	29.587 
20:00	66.0	66.0	66.0	73	57.1	2	9	112	0.00	29.595 
20:05	65.8	65.8	65.8	73	56.9	2	10	135	0.00	29.595 
20:10	65.8	65.8	65.8	73	56.9	2	7	112	0.00	29.595 
20:15	65.8	65.8	65.8	73	56.9	3	7	90	0.00	29.595 
20:20	65.6	65.6	65.6	73	56.7	4	15	90	0.00	29.595 
20:25	65.5	65.5	65.5	74	57.0	3	12	90	0.00	29.595 
20:30	65.3	65.3	65.3	74	56.8	3	7	90	0.00	29.603 
20:35	65.3	65.3	65.3	75	57.2	2	6	90	0.00	29.603 
20:40	65.0	65.0	65.0	76	57.2	3	7	90	0.00	29.603 
20:45	64.8	64.8	64.8	77	57.4	2	6	90	0.00	29.606 
20:50	64.5	64.5	64.5	77	57.1	4	12	90	0.00	29.606 
20:55	64.5	64.5	64.5	77	57.1	4	13	90	0.00	29.606 
21:00	64.3	64.3	64.3	77	56.9	3	10	90	0.00	29.611 
21:05	64.2	64.2	64.2	77	56.8	3	6	90	0.00	29.611 
21:10	64.0	64.0	64.0	78	57.0	1	5	112	0.00	29.611 
21:15	63.7	63.7	63.7	79	57.1	3	7	112	0.00	29.617 
21:20	63.5	63.5	63.5	79	56.9	2	7	90	0.00	29.617 
21:25	63.2	63.2	63.2	80	56.9	3	7	90	0.00	29.617 
21:30	63.2	63.2	63.2	80	56.9	2	7	135	0.00	29.617 
21:35	63.2	63.2	63.2	79	56.6	3	11	90	0.00	29.617 
21:40	63.2	63.2	63.2	79	56.6	3	10	90	0.00	29.617 
21:45	63.1	63.1	63.1	79	56.5	3	12	270	0.00	29.621 
21:50	62.9	62.9	62.9	80	56.6	3	10	90	0.00	29.621 
21:55	62.7	62.7	62.7	80	56.4	2	4	112	0.00	29.621 
22:00	62.6	62.6	62.6	80	56.3	3	9	90	0.00	29.620 
22:05	62.4	62.4	62.4	80	56.1	2	7	90	0.00	29.620 
22:10	62.4	62.4	62.4	81	56.5	2	7	112	0.00	29.620 
22:15	62.4	62.4	62.4	81	56.5	3	9	248	0.00	29.615 
22:20	62.3	62.3	62.3	81	56.4	2	7	248	0.00	29.615 
22:25	62.1	62.1	62.1	81	56.2	2	6	180	0.00	29.615 
22:30	61.8	61.8	61.8	82	56.2	1	5	90	0.00	29.615 
22:35	61.6	61.6	61.6	82	56.0	2	5	90	0.00	29.615 
22:40	61.5	61.5	61.5	82	55.9	2	6	90	0.00	29.615 
22:45	61.6	61.6	61.6	82	56.0	3	13	270	0.00	29.615 
22:50	61.6	61.6	61.6	82	56.0	3	9	292	0.00	29.615 
22:55	61.6	61.6	61.6	81	55.7	2	6	248	0.00	29.613 
23:00	61.5	61.5	61.5	82	55.9	1	4	248	0.00	29.612 
23:05	61.6	61.6	61.6	82	56.0	2	7	248	0.00	29.612 
23:10	61.8	61.8	61.8	81	55.9	1	3	248	0.00	29.610 
23:15	62.0	62.0	62.0	81	56.1	2	7	292	0.00	29.610 
23:20	62.1	62.1	62.1	81	56.2	2	7	248	0.00	29.606 
23:25	62.1	62.1	62.1	80	55.9	2	7	248	0.00	29.605 
23:30	62.1	62.1	62.1	80	55.9	0	2	270	0.00	29.602 
23:35	62.1	62.1	62.1	80	55.9	1	5	270	0.00	29.601 
23:40	62.0	62.0	62.0	80	55.8	1	4	248	0.00	29.601 
23:45	62.0	62.0	62.0	80	55.8	2	5	292	0.00	29.599 
23:50	61.8	61.8	61.8	81	55.9	1	5	112	0.00	29.600 
23:55	61.8	61.8	61.8	81	55.9	2	10	248	0.00	29.604 

CoCoRaHS
IN-AL-39
A2 Web Hosting
Creative Commons License
GoDaddy
Look for:

loaded 2017-10-19 12:03:08 • last modified 2010-11-18 10:43:29
Privacy PolicyDisclaimer
• wx.awcolley.com is powered by PmWiki v.2002016 •
• all content (unless otherwise noted) © 2017 A W Colley